This is the latest recevied weather packets stored in our database for station/object KG7KID-5. If no packets are shown the sender has not sent any weather packets the latest 1 day(s).
| Time | Temp. | Humidity | Pressure | Rain* | Wind** | Luminosity | Snow |
|---|---|---|---|---|---|---|---|
| 1778005974 | 20° C | 38% | 925.5 hPa | 0 mm | 0 m/s | - | - |
| 1778005675 | 20° C | 43% | 925.5 hPa | 0 mm | 0 m/s | - | - |
| 1778005522 | 20.56° C | 39% | 925.5 hPa | 0 mm | 0 m/s | - | - |
| 1778005350 | 20.56° C | 39% | 925.5 hPa | 0 mm | 0 m/s | - | - |
| 1778001955 | 18.33° C | 50% | 925.8 hPa | 0 mm | 0 m/s | - | - |
| 1778001749 | 18.33° C | 50% | 925.8 hPa | 0 mm | 0 m/s | - | - |
| 1778000250 | 18.33° C | 40% | 925.8 hPa | 0 mm | 0 m/s | - | - |
| 1777999650 | 17.78° C | 46% | 925.9 hPa | 0 mm | 0 m/s | - | - |
| 1777999350 | 17.78° C | 46% | 926 hPa | 0 mm | 0 m/s | - | - |
| 1777999249 | 17.78° C | 45% | 926 hPa | 0 mm | 0 m/s | - | - |
| 1777999049 | 17.78° C | 45% | 926 hPa | 0 mm | 0 m/s | - | - |
| 1777998150 | 18.33° C | 44% | 926 hPa | 0 mm | 0 m/s | - | - |
| 1777998111 | 18.33° C | 45% | 926.1 hPa | 0 mm | 0 m/s | - | - |
| 1777997848 | 18.33° C | 45% | 926.1 hPa | 0 mm | 0 m/s | - | - |
| 1777997549 | 18.33° C | 45% | 926.1 hPa | 0 mm | 0 m/s | - | - |
| 1777997439 | 18.33° C | 44% | 926.1 hPa | 0 mm | 0 m/s | - | - |
| 1777997248 | 18.33° C | 44% | 926.1 hPa | 0 mm | 0 m/s | - | - |
| 1777997136 | 18.33° C | 44% | 926.3 hPa | 0 mm | 0 m/s | - | - |
| 1777996949 | 18.33° C | 44% | 926.3 hPa | 0 mm | 0 m/s | - | - |
| 1777996540 | 17.78° C | 47% | 926.3 hPa | 0 mm | 0 m/s | - | - |
| 1777996348 | 17.78° C | 47% | 926.3 hPa | 0 mm | 0 m/s | - | - |
| 1777995876 | 17.78° C | 49% | 926.2 hPa | 0 mm | 0 m/s | - | - |
| 1777995749 | 17.78° C | 49% | 926.2 hPa | 0 mm | 0 m/s | - | - |
| 1777995521 | 17.78° C | 49% | 926.3 hPa | 0 mm | 0 m/s | - | - |
| 1777995285 | 17.78° C | 49% | 926.3 hPa | 0 mm | 0 m/s | - | - |
* Rain latest hour (hover to see other rain measurements)
** Current wind speed in m/s (hover to see current wind gust speed)